createdAt,value
2023-04-28T00:02:22.230Z,4.35
2023-04-28T00:04:59.551Z,4.40
2023-04-28T00:07:35.164Z,4.90
2023-04-28T00:10:02.251Z,5.15
2023-04-28T00:12:31.535Z,5.35
2023-04-28T00:15:15.740Z,3.50
2023-04-28T00:17:51.505Z,3.97
2023-04-28T00:20:27.459Z,3.10
2023-04-28T00:22:54.398Z,3.30
2023-04-28T00:25:23.985Z,3.70
2023-04-28T00:27:51.799Z,3.35
2023-04-28T00:30:21.826Z,3.50
2023-04-28T00:32:48.676Z,3.58
2023-04-28T00:35:15.783Z,3.13
2023-04-28T00:37:42.859Z,3.42
2023-04-28T00:40:10.545Z,3.25
2023-04-28T00:42:37.784Z,3.35
2023-04-28T00:45:06.223Z,3.33
2023-04-28T00:47:38.210Z,3.20
2023-04-28T00:50:13.523Z,3.75
2023-04-28T00:52:40.571Z,3.30
2023-04-28T00:55:09.544Z,3.28
2023-04-28T00:57:39.529Z,3.03
2023-04-28T01:00:07.458Z,3.13
2023-04-28T01:02:36.930Z,3.40
2023-04-28T01:05:04.232Z,3.22
2023-04-28T01:07:31.493Z,3.08
2023-04-28T01:09:58.502Z,3.10
2023-04-28T01:12:26.058Z,3.20
2023-04-28T01:14:53.159Z,3.05
2023-04-28T01:17:20.459Z,3.25
2023-04-28T01:19:47.400Z,3.20
2023-04-28T01:22:16.530Z,2.72
2023-04-28T01:24:50.788Z,3.22
2023-04-28T01:27:25.301Z,3.40
2023-04-28T01:29:52.666Z,3.35
2023-04-28T01:32:19.658Z,3.05
2023-04-28T01:34:49.058Z,3.10
2023-04-28T01:37:17.077Z,3.17
2023-04-28T01:39:48.900Z,3.00
2023-04-28T01:42:15.728Z,2.80
2023-04-28T01:44:42.883Z,2.50
2023-04-28T01:47:09.713Z,2.60
2023-04-28T01:49:39.648Z,3.90
2023-04-28T01:52:07.166Z,3.50
2023-04-28T01:54:42.477Z,3.13
2023-04-28T01:57:21.225Z,3.03
2023-04-28T01:59:50.270Z,3.10
2023-04-28T02:02:17.373Z,2.60
2023-04-28T02:04:44.260Z,3.40
2023-04-28T02:07:11.072Z,3.40
2023-04-28T02:09:38.059Z,3.13
2023-04-28T02:12:05.093Z,3.38
2023-04-28T02:14:42.373Z,3.30
2023-04-28T02:17:10.376Z,3.40
2023-04-28T02:19:38.882Z,3.08
2023-04-28T02:22:06.067Z,3.42
2023-04-28T02:24:36.437Z,3.20
2023-04-28T02:27:05.071Z,3.42
2023-04-28T02:29:32.300Z,3.55
2023-04-28T02:31:59.460Z,3.65
2023-04-28T02:34:26.414Z,3.58
2023-04-28T02:36:54.603Z,3.35
2023-04-28T02:39:28.526Z,3.70
2023-04-28T02:41:55.842Z,3.05
2023-04-28T02:44:23.853Z,3.53
2023-04-28T02:46:50.985Z,4.15
2023-04-28T02:49:19.804Z,3.33
2023-04-28T02:51:47.735Z,2.70
2023-04-28T02:54:16.924Z,2.78
2023-04-28T02:56:43.910Z,2.75
2023-04-28T02:59:11.046Z,3.28
2023-04-28T03:01:37.937Z,4.10
2023-04-28T03:04:05.001Z,4.55
2023-04-28T03:06:32.083Z,4.30
2023-04-28T03:08:59.055Z,5.00
2023-04-28T03:11:33.913Z,4.68
2023-04-28T03:14:01.103Z,4.18
2023-04-28T03:16:28.011Z,3.95
2023-04-28T03:18:54.776Z,3.78
2023-04-28T03:21:21.658Z,4.28
2023-04-28T03:23:53.546Z,3.72
2023-04-28T03:26:23.419Z,3.40
2023-04-28T03:28:50.224Z,5.50
2023-04-28T03:31:18.156Z,3.30
2023-04-28T03:33:47.371Z,4.18
2023-04-28T03:36:14.291Z,3.55
2023-04-28T03:38:41.937Z,6.43
2023-04-28T03:41:08.941Z,7.10
2023-04-28T03:43:37.701Z,6.60
2023-04-28T03:46:05.168Z,7.97
2023-04-28T03:48:32.064Z,7.88
2023-04-28T03:50:59.020Z,7.88
2023-04-28T03:53:25.968Z,7.80
2023-04-28T03:55:53.007Z,8.57
2023-04-28T03:58:20.149Z,8.70
2023-04-28T04:00:47.102Z,8.35
2023-04-28T04:03:17.218Z,8.20
2023-04-28T04:05:44.588Z,8.52
2023-04-28T04:08:12.180Z,8.30
2023-04-28T04:10:39.136Z,8.18
2023-04-28T04:13:06.046Z,9.02
2023-04-28T04:15:33.029Z,7.55
2023-04-28T04:18:00.227Z,8.38
2023-04-28T04:20:27.084Z,4.55
2023-04-28T04:22:53.968Z,4.47
2023-04-28T04:25:29.111Z,4.47
2023-04-28T04:27:56.313Z,4.80
2023-04-28T04:30:24.134Z,7.95
2023-04-28T04:32:51.615Z,8.80
2023-04-28T04:35:20.493Z,8.45
2023-04-28T04:37:47.442Z,6.53
2023-04-28T04:40:17.462Z,5.75
2023-04-28T04:42:44.400Z,6.00
2023-04-28T04:45:11.415Z,7.03
2023-04-28T04:47:39.138Z,5.28
2023-04-28T04:50:06.842Z,5.10
2023-04-28T04:52:33.814Z,5.43
2023-04-28T04:55:02.162Z,6.05
2023-04-28T04:57:29.088Z,6.68
2023-04-28T04:59:55.915Z,5.30
2023-04-28T05:02:25.880Z,5.82
2023-04-28T05:04:53.592Z,5.15
2023-04-28T05:07:22.799Z,5.00
2023-04-28T05:09:49.668Z,5.38
2023-04-28T05:12:16.566Z,6.00
2023-04-28T05:14:43.487Z,5.30
2023-04-28T05:17:13.473Z,5.15
2023-04-28T05:19:40.281Z,4.65
2023-04-28T05:22:07.585Z,4.70
2023-04-28T05:24:40.898Z,4.55
2023-04-28T05:27:09.974Z,4.30
2023-04-28T05:29:37.634Z,4.10
2023-04-28T05:32:04.816Z,4.70
2023-04-28T05:34:31.818Z,4.60
2023-04-28T05:36:58.618Z,4.55
2023-04-28T05:39:25.589Z,4.28
2023-04-28T05:41:52.360Z,4.57
2023-04-28T05:44:19.299Z,3.95
2023-04-28T05:46:46.399Z,3.85
2023-04-28T05:49:13.499Z,4.00
2023-04-28T05:51:44.268Z,3.53
2023-04-28T05:54:11.364Z,4.03
2023-04-28T05:56:38.256Z,3.53
2023-04-28T05:59:10.094Z,3.25
2023-04-28T06:01:40.318Z,3.90
2023-04-28T06:04:07.762Z,3.50
2023-04-28T06:06:35.069Z,3.05
2023-04-28T06:09:03.170Z,3.15
2023-04-28T06:11:36.078Z,3.05
2023-04-28T06:14:04.162Z,3.67
2023-04-28T06:16:31.007Z,3.50
2023-04-28T06:18:58.157Z,3.15
2023-04-28T06:21:25.518Z,6.93
2023-04-28T06:23:52.514Z,3.72
2023-04-28T06:26:19.398Z,4.45
2023-04-28T06:28:46.546Z,4.03
2023-04-28T06:31:16.682Z,4.40
2023-04-28T06:33:43.547Z,5.15
2023-04-28T06:36:14.259Z,4.45
2023-04-28T06:38:44.233Z,4.90
2023-04-28T06:41:11.968Z,5.38
2023-04-28T06:43:38.997Z,4.50
2023-04-28T06:46:06.110Z,4.65
2023-04-28T06:48:34.198Z,6.28
2023-04-28T06:51:09.952Z,5.20
2023-04-28T06:53:37.636Z,4.57
2023-04-28T06:56:04.657Z,5.15
2023-04-28T06:58:31.850Z,5.05
2023-04-28T07:00:58.803Z,5.90
2023-04-28T07:03:27.084Z,4.55
2023-04-28T07:05:54.312Z,5.05
2023-04-28T07:08:21.603Z,5.50
2023-04-28T07:10:48.452Z,5.15
2023-04-28T07:13:15.566Z,5.60
2023-04-28T07:15:42.513Z,5.35
2023-04-28T07:18:14.070Z,5.15
2023-04-28T07:20:40.923Z,6.00
2023-04-28T07:23:07.752Z,7.68
2023-04-28T07:25:35.493Z,7.30
2023-04-28T07:28:04.097Z,7.63
2023-04-28T07:30:30.865Z,5.82
2023-04-28T07:33:01.314Z,5.93
2023-04-28T07:35:28.595Z,5.57
2023-04-28T07:37:56.079Z,7.78
2023-04-28T07:40:25.893Z,6.18
2023-04-28T07:42:53.286Z,6.03
2023-04-28T07:45:20.862Z,5.72
2023-04-28T07:47:47.979Z,8.20
2023-04-28T07:50:15.389Z,7.68
2023-04-28T07:52:42.254Z,6.47
2023-04-28T07:55:09.440Z,6.47
2023-04-28T07:57:36.740Z,6.35
2023-04-28T08:00:04.383Z,8.13
2023-04-28T08:02:31.550Z,5.60
2023-04-28T08:04:58.617Z,7.75
2023-04-28T08:07:29.194Z,8.88
2023-04-28T08:09:56.421Z,6.82
2023-04-28T08:12:23.308Z,5.53
2023-04-28T08:14:51.869Z,6.55
2023-04-28T08:17:18.881Z,9.63
2023-04-28T08:19:46.660Z,8.82
2023-04-28T08:22:13.960Z,9.38
2023-04-28T08:24:40.978Z,10.57
2023-04-28T08:27:08.022Z,10.63
2023-04-28T08:29:35.105Z,6.88
2023-04-28T08:32:02.502Z,6.78
2023-04-28T08:34:29.791Z,7.95
2023-04-28T08:36:56.797Z,8.95
2023-04-28T08:39:23.994Z,8.13
2023-04-28T08:41:50.997Z,8.32
2023-04-28T08:44:18.845Z,7.82
2023-04-28T08:46:50.313Z,7.93
2023-04-28T08:49:27.785Z,7.45
2023-04-28T08:52:00.905Z,7.60
2023-04-28T08:54:39.157Z,7.13
2023-04-28T08:57:09.992Z,6.82
2023-04-28T08:59:43.045Z,6.47
2023-04-28T09:02:13.158Z,6.32
2023-04-28T09:04:42.658Z,6.07
2023-04-28T09:07:15.378Z,6.03
2023-04-28T09:09:42.271Z,6.38
2023-04-28T09:12:09.381Z,5.63
2023-04-28T09:14:37.764Z,6.85
2023-04-28T09:17:16.317Z,7.20
2023-04-28T09:19:46.585Z,6.95
2023-04-28T09:22:26.088Z,6.57
2023-04-28T09:24:57.324Z,5.38
2023-04-28T09:27:28.709Z,5.82
2023-04-28T09:29:59.591Z,7.30
2023-04-28T09:32:28.513Z,5.28
2023-04-28T09:34:59.999Z,6.32
2023-04-28T09:37:30.930Z,5.15
2023-04-28T09:40:10.117Z,5.05
2023-04-28T09:42:41.332Z,5.40
2023-04-28T09:45:09.595Z,5.95
2023-04-28T09:47:39.421Z,5.13
2023-04-28T09:50:14.781Z,4.72
2023-04-28T09:52:44.542Z,5.60
2023-04-28T09:55:16.483Z,4.90
2023-04-28T09:57:48.661Z,4.88
2023-04-28T10:00:18.141Z,5.53
2023-04-28T10:02:52.021Z,5.50
2023-04-28T10:05:22.002Z,5.45
2023-04-28T10:07:50.181Z,5.32
2023-04-28T10:10:21.539Z,6.47
2023-04-28T10:12:48.828Z,5.70
2023-04-28T10:15:16.825Z,6.38
2023-04-28T10:17:44.864Z,6.22
2023-04-28T10:20:12.765Z,4.47
2023-04-28T10:22:45.789Z,5.38
2023-04-28T10:25:12.735Z,5.50
2023-04-28T10:27:45.075Z,7.93
2023-04-28T10:33:15.339Z,6.20
2023-04-28T10:35:45.427Z,8.65
2023-04-28T10:38:23.472Z,7.80
2023-04-28T10:40:56.136Z,9.18
2023-04-28T10:45:56.420Z,9.88
2023-04-28T10:48:47.953Z,11.93
2023-04-28T10:51:15.502Z,13.02
2023-04-28T10:53:45.731Z,13.15
2023-04-28T10:56:27.430Z,12.88
2023-04-28T10:59:01.316Z,14.50
2023-04-28T11:01:30.380Z,15.38
2023-04-28T11:04:18.988Z,11.50
2023-04-28T11:06:48.947Z,9.95
2023-04-28T11:09:15.993Z,11.35
2023-04-28T11:12:06.249Z,11.35
2023-04-28T11:14:35.373Z,8.32
2023-04-28T11:17:11.566Z,8.02
2023-04-28T11:19:44.339Z,8.43
2023-04-28T11:22:20.363Z,9.05
2023-04-28T11:25:04.034Z,9.00
2023-04-28T11:27:33.594Z,9.50
2023-04-28T11:30:02.095Z,8.63
2023-04-28T11:32:29.077Z,8.95
2023-04-28T11:34:59.499Z,7.75
2023-04-28T11:37:27.448Z,8.65
2023-04-28T11:39:56.451Z,8.45
2023-04-28T11:42:26.148Z,6.63
2023-04-28T11:44:54.689Z,7.00
2023-04-28T11:47:38.644Z,7.15
2023-04-28T11:50:12.121Z,7.35
2023-04-28T11:52:50.972Z,6.57
2023-04-28T11:55:19.444Z,6.30
2023-04-28T11:57:46.638Z,6.72
2023-04-28T12:00:15.783Z,5.93
2023-04-28T12:02:44.522Z,5.43
2023-04-28T12:05:11.882Z,6.55
2023-04-28T12:07:45.963Z,6.95
2023-04-28T12:10:17.490Z,5.82
2023-04-28T12:12:51.985Z,5.85
2023-04-28T12:15:23.440Z,5.43
2023-04-28T12:17:51.960Z,6.00
2023-04-28T12:20:38.382Z,5.93
2023-04-28T12:23:07.271Z,5.13
2023-04-28T12:25:35.612Z,5.07
2023-04-28T12:28:05.034Z,4.97
2023-04-28T12:30:34.598Z,5.50
2023-04-28T12:33:10.257Z,5.40
2023-04-28T12:35:37.733Z,4.65
2023-04-28T12:38:04.733Z,4.60
2023-04-28T12:40:34.070Z,4.80
2023-04-28T12:43:01.077Z,4.28
2023-04-28T12:45:28.612Z,4.47
2023-04-28T12:47:56.293Z,4.50
2023-04-28T12:50:23.359Z,4.10
2023-04-28T12:52:59.153Z,4.78
2023-04-28T12:55:29.959Z,4.15
2023-04-28T12:58:07.172Z,4.72
2023-04-28T13:00:35.835Z,3.90
2023-04-28T13:03:02.925Z,4.25
2023-04-28T13:05:35.413Z,3.97
2023-04-28T13:08:04.737Z,4.30
2023-04-28T13:10:31.815Z,4.03
2023-04-28T13:13:01.280Z,4.10
2023-04-28T13:15:28.549Z,4.28
2023-04-28T13:17:55.557Z,3.95
2023-04-28T13:20:30.867Z,3.85
2023-04-28T13:23:02.211Z,4.97
2023-04-28T13:25:29.127Z,3.28
2023-04-28T13:27:55.961Z,4.30
2023-04-28T13:30:30.579Z,3.90
2023-04-28T13:32:58.173Z,3.90
2023-04-28T13:35:25.346Z,3.25
2023-04-28T13:37:56.260Z,4.40
2023-04-28T13:40:23.380Z,3.50
2023-04-28T13:42:50.341Z,3.65
2023-04-28T13:45:18.016Z,3.67
2023-04-28T13:47:45.542Z,3.40
2023-04-28T13:50:12.453Z,3.58
2023-04-28T13:52:39.712Z,4.00
2023-04-28T13:55:07.254Z,3.83
2023-04-28T13:57:39.257Z,3.85
2023-04-28T14:00:07.385Z,4.05
2023-04-28T14:02:37.848Z,4.95
2023-04-28T14:05:05.070Z,4.20
2023-04-28T14:07:32.046Z,3.55
2023-04-28T14:10:07.346Z,3.97
2023-04-28T14:12:38.549Z,3.85
2023-04-28T14:15:07.683Z,3.30
2023-04-28T14:17:35.060Z,3.72
2023-04-28T14:20:03.387Z,3.50
2023-04-28T14:22:32.522Z,3.40
2023-04-28T14:24:59.484Z,3.47
2023-04-28T14:27:41.256Z,3.47
2023-04-28T14:30:09.152Z,3.60
2023-04-28T14:32:40.109Z,3.25
2023-04-28T14:35:07.446Z,4.03
2023-04-28T14:37:35.862Z,3.30
2023-04-28T14:40:03.503Z,3.60
2023-04-28T14:42:31.794Z,3.30
2023-04-28T14:44:59.788Z,4.95
2023-04-28T14:47:27.612Z,4.43
2023-04-28T14:49:55.457Z,3.10
2023-04-28T14:52:25.668Z,4.07
2023-04-28T14:54:57.736Z,4.70
2023-04-28T14:57:26.346Z,4.63
2023-04-28T14:59:55.113Z,3.22
2023-04-28T15:02:29.912Z,2.88
2023-04-28T15:04:58.454Z,3.55
2023-04-28T15:07:31.524Z,4.30
2023-04-28T15:10:01.253Z,4.35
2023-04-28T15:12:30.835Z,4.22
2023-04-28T15:14:58.546Z,4.57
2023-04-28T15:17:26.015Z,3.80
2023-04-28T15:19:53.298Z,3.50
2023-04-28T15:22:20.282Z,3.92
2023-04-28T15:24:47.428Z,4.45
2023-04-28T15:27:14.612Z,3.97
2023-04-28T15:29:42.182Z,3.13
2023-04-28T15:32:09.777Z,3.65
2023-04-28T15:34:37.035Z,3.45
2023-04-28T15:37:28.461Z,3.85
2023-04-28T15:39:57.035Z,3.40
2023-04-28T15:42:24.134Z,3.17
2023-04-28T15:44:51.948Z,3.00
2023-04-28T15:47:19.928Z,3.40
2023-04-28T15:49:47.085Z,3.30
2023-04-28T15:52:14.300Z,2.90
2023-04-28T15:54:46.167Z,2.97
2023-04-28T15:57:13.228Z,2.75
2023-04-28T15:59:44.282Z,3.08
2023-04-28T16:02:11.375Z,3.60
2023-04-28T16:04:39.038Z,2.97
2023-04-28T16:07:08.016Z,2.83
2023-04-28T16:09:35.488Z,3.53
2023-04-28T16:12:05.362Z,2.70
2023-04-28T16:17:01.665Z,2.97
2023-04-28T16:19:36.868Z,3.03
2023-04-28T16:22:03.855Z,2.88
2023-04-28T16:24:32.306Z,3.08
2023-04-28T16:27:24.313Z,3.00
2023-04-28T16:29:52.966Z,3.00
2023-04-28T16:32:23.326Z,3.45
2023-04-28T16:34:50.457Z,3.30
2023-04-28T16:37:17.847Z,2.83
2023-04-28T16:39:45.809Z,2.83
2023-04-28T16:42:17.229Z,3.53
2023-04-28T16:44:44.701Z,2.95
2023-04-28T16:47:18.044Z,3.08
2023-04-28T16:49:45.709Z,2.70
2023-04-28T16:52:33.672Z,2.88
2023-04-28T16:55:09.987Z,2.90
2023-04-28T16:57:43.323Z,2.78
2023-04-28T17:02:55.623Z,3.15
2023-04-28T17:05:22.971Z,2.92
2023-04-28T17:07:50.978Z,2.70
2023-04-28T17:10:19.247Z,2.95
2023-04-28T17:12:46.277Z,2.50
2023-04-28T17:15:19.894Z,2.78
2023-04-28T17:17:51.219Z,3.10
2023-04-28T17:20:20.730Z,3.00
2023-04-28T17:22:48.899Z,3.20
2023-04-28T17:25:17.413Z,3.20
2023-04-28T17:27:44.934Z,2.95
2023-04-28T17:30:12.478Z,2.60
2023-04-28T17:32:39.922Z,3.63
2023-04-28T17:35:09.295Z,3.25
2023-04-28T17:37:37.691Z,2.67
2023-04-28T17:40:05.039Z,2.72
2023-04-28T17:42:34.896Z,2.80
2023-04-28T17:45:06.502Z,2.80
2023-04-28T17:47:39.080Z,2.65
2023-04-28T17:50:06.944Z,3.47
2023-04-28T17:52:34.461Z,3.42
2023-04-28T17:55:03.934Z,3.25
2023-04-28T17:57:30.946Z,2.80
2023-04-28T18:00:00.760Z,3.30
2023-04-28T18:02:36.638Z,3.10
2023-04-28T18:05:05.077Z,2.80
2023-04-28T18:07:39.835Z,2.63
2023-04-28T18:10:20.800Z,2.65
2023-04-28T18:12:52.290Z,2.60
2023-04-28T18:15:23.742Z,2.40
2023-04-28T18:17:55.603Z,3.05
2023-04-28T18:20:23.419Z,2.50
2023-04-28T18:22:50.462Z,2.95
2023-04-28T18:25:18.074Z,3.13
2023-04-28T18:27:48.432Z,2.47
2023-04-28T18:30:15.412Z,2.67
2023-04-28T18:32:42.683Z,2.80
2023-04-28T18:35:09.651Z,4.10
2023-04-28T18:37:38.910Z,3.13
2023-04-28T18:40:06.910Z,2.83
2023-04-28T18:42:40.150Z,2.75
2023-04-28T18:45:15.272Z,3.10
2023-04-28T18:47:42.625Z,2.95
2023-04-28T18:50:09.842Z,2.38
2023-04-28T18:52:36.825Z,2.75
2023-04-28T18:55:06.752Z,3.28
2023-04-28T18:57:34.229Z,3.00
2023-04-28T19:00:02.249Z,3.13
2023-04-28T19:02:32.436Z,4.40
2023-04-28T19:05:03.833Z,2.70
2023-04-28T19:07:32.495Z,3.10
2023-04-28T19:09:59.777Z,3.25
2023-04-28T19:12:26.887Z,3.42
2023-04-28T19:14:53.900Z,3.67
2023-04-28T19:17:24.517Z,3.28
2023-04-28T19:19:55.539Z,4.03
2023-04-28T19:22:40.517Z,4.38
2023-04-28T19:25:07.989Z,5.75
2023-04-28T19:27:40.143Z,5.38
2023-04-28T19:30:13.038Z,6.50
2023-04-28T19:32:41.746Z,5.57
2023-04-28T19:35:11.756Z,4.03
2023-04-28T19:37:39.116Z,6.28
2023-04-28T19:40:08.109Z,4.35
2023-04-28T19:42:35.916Z,4.97
2023-04-28T19:45:05.860Z,6.43
2023-04-28T19:47:35.838Z,6.30
2023-04-28T19:50:02.869Z,6.90
2023-04-28T19:52:30.332Z,6.22
2023-04-28T19:54:57.620Z,6.43
2023-04-28T19:57:27.464Z,6.55
2023-04-28T19:59:56.859Z,6.13
2023-04-28T20:02:24.220Z,6.65
2023-04-28T20:04:52.315Z,6.05
2023-04-28T20:07:19.353Z,6.75
2023-04-28T20:09:47.237Z,4.97
2023-04-28T20:12:15.785Z,6.63
2023-04-28T20:14:45.030Z,6.00
2023-04-28T20:17:12.104Z,6.13
2023-04-28T20:19:39.268Z,6.43
2023-04-28T20:22:10.267Z,6.57
2023-04-28T20:24:37.748Z,6.88
2023-04-28T20:27:09.998Z,6.72
2023-04-28T20:32:05.223Z,6.88
2023-04-28T20:34:32.611Z,6.57
2023-04-28T20:37:00.137Z,7.28
2023-04-28T20:39:27.459Z,7.10
2023-04-28T20:41:54.373Z,7.30
2023-04-28T20:44:21.429Z,7.03
2023-04-28T20:46:55.476Z,6.70
2023-04-28T20:49:31.604Z,7.97
2023-04-28T20:52:12.580Z,7.07
2023-04-28T20:54:40.522Z,7.00
2023-04-28T20:57:09.591Z,7.43
2023-04-28T20:59:37.447Z,8.00
2023-04-28T21:02:05.981Z,7.65
2023-04-28T21:04:34.055Z,7.32
2023-04-28T21:07:01.187Z,7.85
2023-04-28T21:09:30.441Z,8.18
2023-04-28T21:11:57.533Z,8.43
2023-04-28T21:14:24.551Z,8.02
2023-04-28T21:16:52.525Z,7.63
2023-04-28T21:19:20.832Z,8.32
2023-04-28T21:21:48.082Z,8.57
2023-04-28T21:24:15.138Z,7.38
2023-04-28T21:26:42.548Z,7.05
2023-04-28T21:29:09.526Z,7.20
2023-04-28T21:31:36.532Z,7.03
2023-04-28T21:34:08.565Z,7.03
2023-04-28T21:36:36.310Z,6.45
2023-04-28T21:39:05.142Z,6.53
2023-04-28T21:41:32.447Z,3.85
2023-04-28T21:43:59.917Z,4.00
2023-04-28T21:46:32.283Z,2.70
2023-04-28T21:49:00.407Z,3.30
2023-04-28T21:51:28.166Z,3.47
2023-04-28T21:53:55.264Z,3.47
2023-04-28T21:56:22.314Z,2.50
2023-04-28T21:58:49.460Z,3.13
2023-04-28T22:01:18.155Z,2.72
2023-04-28T22:03:50.322Z,2.92
2023-04-28T22:06:18.253Z,3.03
2023-04-28T22:08:48.617Z,2.97
2023-04-28T22:11:16.580Z,2.67
2023-04-28T22:13:43.528Z,2.47
2023-04-28T22:16:17.657Z,2.60
2023-04-28T22:18:47.043Z,2.92
2023-04-28T22:21:15.525Z,2.10
2023-04-28T22:23:42.469Z,2.33
2023-04-28T22:26:09.452Z,2.75
2023-04-28T22:28:40.425Z,3.28
2023-04-28T22:31:07.558Z,2.45
2023-04-28T22:33:39.003Z,2.50
2023-04-28T22:36:06.309Z,2.40
2023-04-28T22:38:42.764Z,2.17
2023-04-28T22:41:10.038Z,2.42
2023-04-28T22:43:40.180Z,2.45
2023-04-28T22:46:08.698Z,2.58
2023-04-28T22:48:43.688Z,2.70
2023-04-28T22:51:11.552Z,2.40
2023-04-28T22:53:38.593Z,2.63
2023-04-28T22:56:11.527Z,2.28
2023-04-28T22:58:38.542Z,2.70
2023-04-28T23:01:05.926Z,2.30
2023-04-28T23:03:41.620Z,2.53
2023-04-28T23:06:12.210Z,3.00
2023-04-28T23:08:39.086Z,2.40
2023-04-28T23:11:10.293Z,2.60
2023-04-28T23:13:38.030Z,2.40
2023-04-28T23:16:08.187Z,2.40
2023-04-28T23:18:35.392Z,2.45
2023-04-28T23:21:02.594Z,2.40
2023-04-28T23:23:31.828Z,2.35
2023-04-28T23:26:06.496Z,2.80
2023-04-28T23:28:33.456Z,2.50
2023-04-28T23:31:00.390Z,2.50
2023-04-28T23:33:28.028Z,2.30
2023-04-28T23:35:55.043Z,2.58
2023-04-28T23:38:21.916Z,2.40
2023-04-28T23:40:52.082Z,2.30
2023-04-28T23:43:19.318Z,2.78
2023-04-28T23:45:46.417Z,2.70
2023-04-28T23:48:13.548Z,2.38
2023-04-28T23:50:43.032Z,2.80
2023-04-28T23:53:10.152Z,2.95
2023-04-28T23:55:37.205Z,2.40
2023-04-28T23:58:04.371Z,2.63
